Lampang, Thailand
Current Conditions -  °F | °C
As of 5:00 PM on Wednesday 26 Nov 2014 (Local Time) from VTCL Reporting Station
Few Clouds Few Clouds  
Wind Chill: 31°   Ceiling: Unl
Heat Index: 33°   Visibility: 6mi
Dew Point: 20°   Wind: 0mph
Humidity: 52%   Direction: NA
Pressure: 29.77"   Gusts: NA
Location:  18.29°N, 99.48°E
Report Text: VTCL 261000Z 00000KT 9999 FEW025 31/20 Q1008 A2986INFO: N
Loading
Personal Weather Stations






























Interactive Weather Map New forecast layout! Learn more

10-Day Weather Forecast

Advertisements
Track Severe Weather on mobile